KDAL/DAL METAR and TAF weather

Enter ICAO airport designator
Station Type Date Time Source
KDAL METAR 2021/09/24 05:53 UTC NOAA

KDAL 240553Z 12004KT 10SM SCT250 20/06 A3005 RMK AO2 SLP170 T02000061 10278 20200 403000139 50001


Station Type Date Time Source
KDAL Decoded METAR 2021/09/24 05:53 UTC NOAA

DALLAS LOVE FIELD, TX, United States (KDAL) 32-51N 096-51W 158M
Sep 24, 2021 - 01:53 AM EDT / 2021.09.24 0553 UTC
Wind: from the ESE (120 degrees) at 5 MPH (4 KT):0
Visibility: 10 mile(s):0
Sky conditions: partly cloudy
Temperature: 68.0 F (20.0 C)
Dew Point: 43.0 F (6.1 C)
Relative Humidity: 40%
Pressure (altimeter): 30.05 in. Hg (1017 hPa)
Pressure tendency: 0.00 inches (0.1 hPa) higher than three hours ago
ob: KDAL 240553Z 12004KT 10SM SCT250 20/06 A3005 RMK AO2 SLP170 T02000061 10278 20200 403000139 50001
cycle: 6

Station Type Date Time Source
KDAL TAF 2021/09/24 06:30 UTC NOAA

TAF KDAL 240529Z 2406/2506 16007KT P6SM FEW250

Example: see airport list